Avery, ID

8:45 PM PDT on July 31, 2014 (GMT -0700)
Coeur D'Alene (KCOE) Elev 2320 ft | 47.77 °N, 116.82 °W | Change Station

Current weather conditions updated 10 minutes ago

Clear
Clear
81 °F
Feels Like 81 °F
N
7
Wind Variable Wind from NW

Tomorrow is forecast to be Much Cooler than today. Partly cloudy with a stray thunderstorm tomorrow night.

Today
High -- | Low -- °F
--% Chance of Precip.
Yesterday
High -- | Low -- °F
Precip. -- in
5:20 AM 8:17 PM
Waxing Crescent, 23% visible
Pressure 29.98 in
Visibility 10.0 miles
Clouds Clear
Dew Point 43 °F
Humidity 26%
Rainfall 0.00 in
Snow Depth Not available.
UV 0 out of 12
Pollen 6.60 out of 12
Air Quality Not available.
Flu Activity Not available.
METAR KCOE 010335Z AUTO 32006KT 10SM CLR 27/06 A2998 RMK AO1

More Conditions Fewer Conditions

Pressure 29.98 in
Visibility 10.0 miles
Clouds Clear
Dew Point 43 °F
Humidity 26%
Rainfall 0.00 in
Snow Depth Not available.
UV 0 out of 12
Pollen 6.60 out of 12
Air Quality Not available.
Flu Activity Not available.
METAR KCOE 010335Z AUTO 32006KT 10SM CLR 27/06 A2998 RMK AO1

More Conditions Fewer Conditions

10-Day Weather Forecast

Almanac

Astronomy

Jul. 31, 2014 Rise Set
Actual Time 5:20 AM PDT 8:17 PM PDT
Civil Twilight 4:44 AM PDT 8:53 PM PDT
Nautical Twilight 3:58 AM PDT 9:39 PM PDT
Astronomical Twilight 3:03 AM PDT 10:34 PM PDT
Moon 10:14 AM PDT (7/31) 10:09 PM PDT (7/31)
Length of Visible Light 16h 08m
Length of Day
14h 56m
Tomorrow will be 2m 36s shorter.
Waxing Crescent, 23% of the Moon is Illuminated
Today
Waxing Crescent
Aug 3
First Quarter
Aug 10
Full
Aug 17
Last Quarter
Aug 25
New

Today's Extremes

State Highs State Lows

Community

WunderPhotos

Upload Photos

1,739,504 photos uploaded!

Nearby

Snow Depth

Station Depth Elevation
Humboldt Gulch 1 in 4250 ft
Mica Creek 0 in 4750 ft
Sunset 0 in 5540 ft
Savage Pass 0 in 6170 ft
Schweitzer Basin 0 in 6090 ft

Earthquake Activity

City Distance Mag. Time & Date
No recent earthquake activity has been reported nearby.
Minimum magnitude displayed is 2.5.

Coastal Water Temperatures

Place Temperature
No Stations Reporting

Nearby Weather Stations

Station Location Temp. Heat Index Dew Point Humidity Wind Precip. Elev Updated Type
ITD Lookout Pass ID , Mullan, ID 79 °F 78 °F 38 °F 22% SSE  at  3 mph 0.00 in / hr 4525 ft 7:45 PM PDT MADIS
ITD Wallace Viaduct ID , Wallace, ID 78 °F 79 °F 53 °F 42% East  at  2 mph 0.00 in / hr 2791 ft 7:45 PM PDT MADIS
MesoWest Lookout Pass I-90 MP 0.2 , Mullan, ID 74 °F 77 °F 45 °F 36% North  at  1 mph 0.00 in / hr 4724 ft 7:45 PM PDT MADIS

Show More Stations Show Fewer Stations